Time;durP1;ratioP1;P1;durP2;ratioP2;P2;SDS_P1;SDS_P2;PMS_P1;PMS_P2;Temp;Humidity;BMP_temperature;BMP_pressure;BME280_temperature;BME280_humidity;BME280_pressure;Samples;Min_cycle;Max_cycle;Signal;HPM_P1;HPM_P2
2023/05/17 00:00:34;;;;;;;0.98;0.45;;;7.20;99.90;;;;;;5044898;28;20041;-82
2023/05/17 00:03:00;;;;;;;0.00;0.00;;;7.10;1.00;;;;;;5040713;28;20069;-84
2023/05/17 00:05:26;;;;;;;2.45;2.25;;;7.20;99.90;;;;;;5050717;28;20178;-83
2023/05/17 00:07:51;;;;;;;0.60;0.57;;;7.10;99.90;;;;;;5054049;28;20070;-84
2023/05/17 00:10:17;;;;;;;2.67;0.73;;;6.90;99.90;;;;;;5053397;28;20047;-82
2023/05/17 00:12:43;;;;;;;6.50;2.75;;;6.90;1.00;;;;;;5052701;28;20487;-82
2023/05/17 00:15:09;;;;;;;0.43;0.20;;;6.80;1.00;;;;;;5035479;28;20503;-82
2023/05/17 00:17:36;;;;;;;0.93;0.88;;;6.70;99.90;;;;;;5042803;28;20057;-82
2023/05/17 00:20:03;;;;;;;0.68;0.47;;;6.70;99.90;;;;;;5052582;28;20506;-82
2023/05/17 00:22:29;;;;;;;0.80;0.80;;;6.50;99.90;;;;;;5052135;28;20051;-83
2023/05/17 00:24:55;;;;;;;0.00;0.00;;;6.50;1.00;;;;;;5048701;28;20076;-82
2023/05/17 00:27:21;;;;;;;2.30;0.65;;;6.70;29.80;;;;;;5036907;28;20577;-84
2023/05/17 00:29:46;;;;;;;0.00;0.00;;;7.90;1.00;;;;;;5032426;28;20060;-82
2023/05/17 00:32:12;;;;;;;0.95;0.90;;;6.90;99.90;;;;;;5031913;28;20050;-82
2023/05/17 00:34:37;;;;;;;0.00;0.00;;;6.80;99.90;;;;;;5046144;28;20049;-83
2023/05/17 00:37:03;;;;;;;0.22;0.22;;;7.10;99.90;;;;;;5040657;28;20594;-82
2023/05/17 00:39:29;;;;;;;4.38;0.52;;;7.00;67.40;;;;;;5031229;28;20045;-83
2023/05/17 00:41:54;;;;;;;0.03;0.03;;;7.00;1.00;;;;;;5031952;28;20145;-83
2023/05/17 00:44:20;;;;;;;0.00;0.00;;;6.80;1.00;;;;;;5046328;28;20076;-83
2023/05/17 00:46:45;;;;;;;0.30;0.20;;;6.70;1.00;;;;;;5067821;28;20032;-83
2023/05/17 00:49:11;;;;;;;0.32;0.30;;;6.60;99.90;;;;;;5073046;28;20323;-82
2023/05/17 00:51:38;;;;;;;0.35;0.35;;;6.40;99.90;;;;;;5072942;28;20316;-82
2023/05/17 00:54:04;;;;;;;0.15;0.15;;;6.20;99.90;;;;;;5068085;28;20048;-82
2023/05/17 00:56:30;;;;;;;0.03;0.03;;;6.00;99.90;;;;;;5058716;28;20053;-83
2023/05/17 00:58:56;;;;;;;0.00;0.00;;;5.90;99.90;;;;;;5061667;28;20072;-82
2023/05/17 01:01:22;;;;;;;0.28;0.28;;;5.80;99.90;;;;;;5055484;28;20041;-83
2023/05/17 01:03:48;;;;;;;1.15;0.45;;;5.80;1.00;;;;;;5050741;28;20038;-82
2023/05/17 01:06:14;;;;;;;0.00;0.00;;;5.80;1.00;;;;;;5041194;28;20411;-82
2023/05/17 01:08:39;;;;;;;0.00;0.00;;;5.80;99.90;;;;;;5051679;28;20049;-82
2023/05/17 01:11:47;;;;;;;0.00;0.00;;;5.90;99.90;;;;;;5052906;28;20044;-83
2023/05/17 01:14:41;;;;;;;0.20;0.20;;;6.00;99.90;;;;;;5023795;28;20081;-82
2023/05/17 01:17:15;;;;;;;0.00;0.00;;;6.20;99.90;;;;;;5034787;28;20049;-81
2023/05/17 01:19:59;;;;;;;0.00;0.00;;;6.60;99.10;;;;;;5033798;28;20034;-82
2023/05/17 01:22:35;;;;;;;0.52;0.52;;;6.50;89.20;;;;;;5032527;28;20510;-83
2023/05/17 01:25:32;;;;;;;0.20;0.20;;;6.50;1.00;;;;;;5034837;28;20041;-82
2023/05/17 01:27:59;;;;;;;;;;;6.70;99.90;;;;;;5035320;28;20046;-83
2023/05/17 01:30:25;;;;;;;0.20;0.20;;;6.70;99.90;;;;;;5034810;28;19941;-82
2023/05/17 01:32:57;;;;;;;6.22;1.45;;;6.60;99.90;;;;;;5033192;28;20037;-82
2023/05/17 01:35:23;;;;;;;0.38;0.38;;;6.60;99.90;;;;;;5049689;28;20064;-83
2023/05/17 01:37:50;;;;;;;0.00;0.00;;;6.60;99.90;;;;;;5052817;28;20434;-82
2023/05/17 01:40:17;;;;;;;0.00;0.00;;;6.40;80.80;;;;;;5054001;28;20415;-83
2023/05/17 01:42:43;;;;;;;0.00;0.00;;;6.20;1.00;;;;;;5054513;28;20044;-82
2023/05/17 01:45:47;;;;;;;0.00;0.00;;;6.10;99.90;;;;;;5037383;28;20052;-82
2023/05/17 01:48:23;;;;;;;0.15;0.05;;;6.10;99.90;;;;;;4990318;28;20117;-82
2023/05/17 01:50:51;;;;;;;0.20;0.20;;;5.90;99.90;;;;;;5026284;28;20053;-83
2023/05/17 01:53:25;;;;;;;0.08;0.08;;;5.90;1.00;;;;;;5033707;28;20557;-82
2023/05/17 01:55:53;;;;;;;0.00;0.00;;;5.90;1.00;;;;;;5032555;28;20053;-82
2023/05/17 01:58:21;;;;;;;0.38;0.38;;;5.90;99.90;;;;;;5032335;28;20133;-83
2023/05/17 02:00:51;;;;;;;0.00;0.00;;;5.90;99.90;;;;;;5031842;28;20056;-83
2023/05/17 02:03:18;;;;;;;0.20;0.20;;;6.00;99.90;;;;;;5031482;28;20140;-83
2023/05/17 02:05:44;;;;;;;0.00;0.00;;;6.00;99.90;;;;;;5048544;28;20388;-83
2023/05/17 02:08:10;;;;;;;1.95;0.95;;;6.10;1.00;;;;;;5040176;28;20071;-83
2023/05/17 02:10:35;;;;;;;0.20;0.20;;;6.00;1.00;;;;;;5032643;28;20056;-82
2023/05/17 02:13:01;;;;;;;0.00;0.00;;;6.00;99.90;;;;;;5051582;28;20063;-82
2023/05/17 02:15:27;;;;;;;0.00;0.00;;;6.00;99.90;;;;;;5037272;28;20052;-82
2023/05/17 02:17:52;;;;;;;0.22;0.20;;;6.00;6.40;;;;;;5033279;28;20072;-82
2023/05/17 02:20:18;;;;;;;0.28;0.28;;;5.90;99.90;;;;;;5035037;28;20037;-84
2023/05/17 02:22:44;;;;;;;0.00;0.00;;;5.70;70.40;;;;;;5016057;28;20100;-83
2023/05/17 02:25:09;;;;;;;0.90;0.38;;;6.40;2.50;;;;;;5033823;28;20294;-82
2023/05/17 02:27:35;;;;;;;0.00;0.00;;;5.40;16.30;;;;;;5033358;28;20045;-82
2023/05/17 02:30:02;;;;;;;4.57;1.23;;;5.30;1.00;;;;;;5034130;28;20044;-83
2023/05/17 02:32:28;;;;;;;0.20;0.20;;;5.20;68.40;;;;;;5033442;28;20049;-82
2023/05/17 02:34:54;;;;;;;1.08;0.80;;;5.10;3.80;;;;;;5034157;28;20056;-83
2023/05/17 02:37:20;;;;;;;0.00;0.00;;;5.10;99.90;;;;;;5033753;28;20558;-82
2023/05/17 02:39:46;;;;;;;0.00;0.00;;;5.10;99.90;;;;;;5032920;28;20045;-83
2023/05/17 02:42:12;;;;;;;0.10;0.10;;;5.00;99.90;;;;;;5052438;28;20037;-82
2023/05/17 02:44:37;;;;;;;0.00;0.00;;;5.80;99.90;;;;;;5042675;28;20037;-82
2023/05/17 02:47:03;;;;;;;0.05;0.05;;;4.90;99.90;;;;;;5033255;28;20128;-82
2023/05/17 02:49:29;;;;;;;0.00;0.00;;;5.00;99.90;;;;;;5033188;28;20057;-82
2023/05/17 02:51:55;;;;;;;0.00;0.00;;;4.90;99.90;;;;;;5050793;28;20071;-82
2023/05/17 02:54:20;;;;;;;0.00;0.00;;;5.00;99.90;;;;;;5046113;28;20496;-83
2023/05/17 02:56:46;;;;;;;0.08;0.08;;;5.00;99.90;;;;;;5033320;28;20419;-82
2023/05/17 02:59:12;;;;;;;0.00;0.00;;;5.10;99.90;;;;;;5032793;28;20041;-82
2023/05/17 03:01:37;;;;;;;0.00;0.00;;;5.20;99.90;;;;;;5048343;28;20137;-82
2023/05/17 03:04:03;;;;;;;0.17;0.17;;;5.30;99.90;;;;;;5050507;28;20046;-83
2023/05/17 03:06:28;;;;;;;0.00;0.00;;;5.40;99.90;;;;;;5033954;28;20441;-82
2023/05/17 03:08:54;;;;;;;0.10;0.10;;;5.50;99.90;;;;;;5035156;28;20060;-83
2023/05/17 03:11:20;;;;;;;0.00;0.00;;;5.60;99.90;;;;;;5046989;28;20070;-83
2023/05/17 03:13:50;;;;;;;0.00;0.00;;;5.60;99.90;;;;;;5054593;28;20041;-82
2023/05/17 03:16:16;;;;;;;0.10;0.10;;;6.20;99.90;;;;;;5055088;28;20064;-83
2023/05/17 03:18:42;;;;;;;0.20;0.10;;;5.90;99.90;;;;;;5063461;28;20048;-82
2023/05/17 03:21:07;;;;;;;0.00;0.00;;;5.90;99.90;;;;;;5066513;28;20037;-82
2023/05/17 03:23:33;;;;;;;0.00;0.00;;;6.70;99.90;;;;;;5064400;28;20044;-83
2023/05/17 03:25:59;;;;;;;0.00;0.00;;;6.00;99.90;;;;;;5045911;28;20041;-82
2023/05/17 03:28:25;;;;;;;2.50;0.40;;;6.00;99.90;;;;;;5045343;28;20049;-82
2023/05/17 03:30:51;;;;;;;0.00;0.00;;;6.00;99.90;;;;;;5046190;28;20064;-82
2023/05/17 03:33:18;;;;;;;0.00;0.00;;;6.10;99.90;;;;;;5044584;28;20099;-82
2023/05/17 03:35:45;;;;;;;0.00;0.00;;;6.20;91.60;;;;;;5037748;28;20066;-83
2023/05/17 03:38:12;;;;;;;0.30;0.30;;;6.20;1.00;;;;;;5061064;28;20041;-83
2023/05/17 03:40:37;;;;;;;0.60;0.43;;;6.30;1.00;;;;;;5049637;28;20174;-83
2023/05/17 03:43:03;;;;;;;0.00;0.00;;;6.40;1.00;;;;;;5052560;28;20091;-83
2023/05/17 03:45:29;;;;;;;0.00;0.00;;;6.50;1.00;;;;;;5065063;28;20049;-82
2023/05/17 03:47:55;;;;;;;0.10;0.10;;;6.50;99.90;;;;;;5071507;28;20330;-82
2023/05/17 03:50:20;;;;;;;0.47;0.45;;;6.60;99.90;;;;;;5048223;28;20084;-83
2023/05/17 03:52:46;;;;;;;0.15;0.15;;;6.60;1.00;;;;;;5052929;28;20021;-83
2023/05/17 03:55:12;;;;;;;0.00;0.00;;;6.60;99.90;;;;;;5053874;28;20025;-81
2023/05/17 03:57:37;;;;;;;0.10;0.10;;;6.50;1.00;;;;;;5051917;28;20049;-82
2023/05/17 04:00:09;;;;;;;2.45;1.55;;;6.40;99.90;;;;;;5054621;28;20033;-83
2023/05/17 04:02:35;;;;;;;2.13;0.55;;;6.50;99.90;;;;;;5068599;28;20052;-82
2023/05/17 04:05:01;;;;;;;20.58;0.47;;;7.20;99.90;;;;;;5045661;28;20108;-83
2023/05/17 04:07:27;;;;;;;0.20;0.15;;;6.40;99.90;;;;;;5049361;28;20048;-82
2023/05/17 04:09:57;;;;;;;0.00;0.00;;;5.30;99.90;;;;;;5056124;28;20067;-82
2023/05/17 04:12:23;;;;;;;0.00;0.00;;;6.40;99.90;;;;;;5056925;28;20052;-82
2023/05/17 04:14:49;;;;;;;0.08;0.08;;;6.50;99.90;;;;;;5055956;28;20033;-82
2023/05/17 04:17:14;;;;;;;0.00;0.00;;;6.50;1.00;;;;;;5054484;28;20057;-82
2023/05/17 04:19:40;;;;;;;1.23;0.65;;;6.70;99.90;;;;;;5055698;28;20556;-83
2023/05/17 04:22:06;;;;;;;0.00;0.00;;;6.80;1.00;;;;;;5055209;28;20044;-83
2023/05/17 04:24:31;;;;;;;1.48;1.38;;;6.90;99.90;;;;;;5049018;28;20479;-83
2023/05/17 04:26:58;;;;;;;0.00;0.00;;;7.00;99.90;;;;;;5044202;28;20045;-83
2023/05/17 04:29:24;;;;;;;1.17;0.65;;;7.70;99.90;;;;;;5055567;28;20049;-83
2023/05/17 04:31:50;;;;;;;0.00;0.00;;;7.20;99.90;;;;;;5055891;28;20376;-83
2023/05/17 04:34:16;;;;;;;0.00;0.00;;;7.20;99.90;;;;;;5055441;28;20048;-82
2023/05/17 04:36:41;;;;;;;0.00;0.00;;;7.30;15.60;;;;;;5048546;28;20076;-82
2023/05/17 04:39:07;;;;;;;2.45;0.90;;;7.40;1.00;;;;;;5035641;28;20092;-82
2023/05/17 04:41:33;;;;;;;0.00;0.00;;;7.50;99.90;;;;;;5037024;28;20165;-83
2023/05/17 04:43:59;;;;;;;0.00;0.00;;;8.60;1.00;;;;;;5038680;28;20076;-83
2023/05/17 04:46:25;;;;;;;0.00;0.00;;;8.50;99.90;;;;;;5040899;28;20029;-83
2023/05/17 04:48:52;;;;;;;32.42;0.70;;;7.60;99.90;;;;;;5058577;28;20048;-82
2023/05/17 04:51:18;;;;;;;0.93;0.85;;;7.70;99.90;;;;;;5058383;28;20041;-83
2023/05/17 04:53:43;;;;;;;0.00;0.00;;;7.80;99.90;;;;;;5054297;28;20048;-83
2023/05/17 04:56:09;;;;;;;3.33;1.30;;;8.00;99.90;;;;;;5054561;28;20061;-82
2023/05/17 04:58:35;;;;;;;0.47;0.45;;;8.10;99.90;;;;;;5036193;28;20049;-83
2023/05/17 05:01:00;;;;;;;2.15;0.10;;;8.20;99.90;;;;;;5034957;28;20041;-83
2023/05/17 05:03:26;;;;;;;0.00;0.00;;;8.20;99.90;;;;;;5034649;28;20052;-83
2023/05/17 05:05:52;;;;;;;0.17;0.10;;;8.20;99.90;;;;;;5046304;28;20049;-83
2023/05/17 05:08:17;;;;;;;0.00;0.00;;;8.20;99.90;;;;;;5036298;28;20049;-82
2023/05/17 05:10:43;;;;;;;0.35;0.35;;;8.20;99.90;;;;;;5034871;28;20045;-83
2023/05/17 05:13:08;;;;;;;0.00;0.00;;;9.20;99.90;;;;;;5053300;28;20048;-83
2023/05/17 05:15:34;;;;;;;0.00;0.00;;;8.60;99.90;;;;;;5036608;28;20049;-82
2023/05/17 05:18:00;;;;;;;6.40;1.98;;;9.10;77.50;;;;;;5037974;28;20053;-83
2023/05/17 05:20:25;;;;;;;0.20;0.17;;;10.80;39.40;;;;;;5045007;28;20138;-83
2023/05/17 05:22:51;;;;;;;0.00;0.00;;;10.60;21.70;;;;;;5054360;28;20049;-82
2023/05/17 05:25:17;;;;;;;0.13;0.10;;;11.10;1.00;;;;;;5055689;28;20040;-83
2023/05/17 05:27:42;;;;;;;0.05;0.03;;;11.00;1.00;;;;;;5046409;28;20448;-83
2023/05/17 05:30:08;;;;;;;0.00;0.00;;;12.00;1.00;;;;;;5047363;28;20041;-82
2023/05/17 05:32:36;;;;;;;0.10;0.10;;;10.60;1.00;;;;;;5034944;28;20083;-83
2023/05/17 05:35:03;;;;;;;0.00;0.00;;;10.20;1.00;;;;;;5034050;28;20552;-83
2023/05/17 05:37:30;;;;;;;0.55;0.40;;;9.50;1.00;;;;;;5035982;28;20055;-83
2023/05/17 05:39:56;;;;;;;0.00;0.00;;;10.00;1.00;;;;;;5033772;28;20124;-83
2023/05/17 05:42:22;;;;;;;0.00;0.00;;;10.00;1.00;;;;;;5035266;28;20073;-83
2023/05/17 05:44:47;;;;;;;0.00;0.00;;;10.80;1.00;;;;;;5034491;28;20037;-83
2023/05/17 05:47:13;;;;;;;6.03;0.30;;;10.00;1.00;;;;;;5034856;28;20041;-83
2023/05/17 05:49:38;;;;;;;0.00;0.00;;;10.10;1.00;;;;;;5035550;28;20077;-83
2023/05/17 05:52:04;;;;;;;0.00;0.00;;;10.30;1.00;;;;;;5035646;28;20041;-83
2023/05/17 05:54:30;;;;;;;0.00;0.00;;;10.30;1.00;;;;;;5049122;28;20044;-82
2023/05/17 05:56:55;;;;;;;0.00;0.00;;;10.20;1.00;;;;;;5016515;28;1104992;-83
2023/05/17 05:59:21;;;;;;;0.17;0.15;;;10.20;1.00;;;;;;5053188;28;20445;-83
2023/05/17 06:01:47;;;;;;;0.10;0.10;;;10.10;1.00;;;;;;5050807;28;20040;-83
2023/05/17 06:04:12;;;;;;;0.05;0.05;;;10.00;1.00;;;;;;5033660;28;20389;-83
2023/05/17 06:06:38;;;;;;;0.00;0.00;;;10.40;1.00;;;;;;5027242;28;20037;-83
2023/05/17 06:09:05;;;;;;;0.00;0.00;;;10.00;1.00;;;;;;5028286;28;20053;-83
2023/05/17 06:11:31;;;;;;;0.20;0.20;;;10.20;1.00;;;;;;5030457;28;20061;-83
2023/05/17 06:13:57;;;;;;;0.00;0.00;;;10.30;1.00;;;;;;5047500;28;20044;-83
2023/05/17 06:16:23;;;;;;;0.45;0.40;;;10.70;1.00;;;;;;5045588;28;20037;-83
2023/05/17 06:18:48;;;;;;;0.10;0.10;;;12.00;1.00;;;;;;5046248;28;20033;-83
2023/05/17 06:21:15;;;;;;;0.00;0.00;;;13.10;1.00;;;;;;5046058;28;20041;-83
2023/05/17 06:23:40;;;;;;;0.45;0.40;;;13.40;1.00;;;;;;5045425;28;20052;-83
2023/05/17 06:26:09;;;;;;;3.75;1.05;;;12.70;1.00;;;;;;5047480;28;20455;-83
2023/05/17 06:28:35;;;;;;;0.00;0.00;;;12.40;1.00;;;;;;5046017;28;20080;-82
2023/05/17 06:31:00;;;;;;;4.13;0.28;;;11.70;1.00;;;;;;5028533;28;20053;-83
2023/05/17 06:33:27;;;;;;;0.00;0.00;;;11.90;1.00;;;;;;5025502;28;20047;-83
2023/05/17 06:35:55;;;;;;;0.17;0.17;;;11.90;1.00;;;;;;5027791;28;20407;-82
2023/05/17 06:38:21;;;;;;;0.00;0.00;;;11.80;1.00;;;;;;5042419;28;20443;-83
2023/05/17 06:40:50;;;;;;;1.13;1.02;;;11.80;1.00;;;;;;5048723;28;20092;-82
2023/05/17 06:43:15;;;;;;;0.13;0.10;;;11.80;1.00;;;;;;5031840;28;20045;-82
2023/05/17 06:45:41;;;;;;;0.45;0.40;;;11.70;1.00;;;;;;5025254;28;20349;-82
2023/05/17 06:48:07;;;;;;;14.07;0.57;;;11.60;1.00;;;;;;5022686;28;20049;-83
2023/05/17 06:50:32;;;;;;;0.15;0.10;;;11.20;1.00;;;;;;5020429;28;20056;-82
2023/05/17 06:52:58;;;;;;;0.20;0.20;;;11.00;1.00;;;;;;5048013;28;20093;-83
2023/05/17 06:55:23;;;;;;;0.05;0.05;;;10.70;1.00;;;;;;5048515;28;20032;-83
2023/05/17 06:57:49;;;;;;;0.10;0.10;;;10.70;1.00;;;;;;5048459;28;20041;-82
2023/05/17 07:00:15;;;;;;;1.25;0.80;;;10.40;1.00;;;;;;5059902;28;20090;-82
2023/05/17 07:02:41;;;;;;;1.15;0.55;;;10.50;1.00;;;;;;5068350;28;20047;-82
2023/05/17 07:05:07;;;;;;;0.00;0.00;;;10.50;1.00;;;;;;5066988;28;20049;-82
2023/05/17 07:07:32;;;;;;;0.32;0.30;;;10.60;1.00;;;;;;5058784;28;20106;-83
2023/05/17 07:09:58;;;;;;;0.00;0.00;;;10.70;1.00;;;;;;5042679;28;20044;-82
2023/05/17 07:12:23;;;;;;;0.10;0.10;;;10.60;1.00;;;;;;5050405;28;20060;-82
2023/05/17 07:14:49;;;;;;;0.00;0.00;;;10.70;1.00;;;;;;5049459;28;20175;-82
2023/05/17 07:17:15;;;;;;;0.00;0.00;;;10.80;1.00;;;;;;5031831;28;20084;-82
2023/05/17 07:19:40;;;;;;;0.10;0.10;;;10.80;1.00;;;;;;5029725;28;20041;-83
2023/05/17 07:22:06;;;;;;;0.75;0.65;;;10.60;1.00;;;;;;5028505;28;20526;-82
2023/05/17 07:24:31;;;;;;;1.00;0.88;;;10.70;1.00;;;;;;5027820;28;20034;-82
2023/05/17 07:26:57;;;;;;;0.20;0.17;;;11.70;1.00;;;;;;5029781;28;20041;-82
2023/05/17 07:29:23;;;;;;;0.00;0.00;;;10.80;1.00;;;;;;5029943;28;20071;-82
2023/05/17 07:31:49;;;;;;;4.95;1.45;;;11.10;1.00;;;;;;5028785;28;20046;-82
2023/05/17 07:34:14;;;;;;;0.20;0.20;;;11.00;1.00;;;;;;5028853;28;20446;-82
2023/05/17 07:36:40;;;;;;;0.20;0.20;;;11.00;1.00;;;;;;5028806;28;20049;-82
2023/05/17 07:39:07;;;;;;;0.75;0.70;;;11.20;1.00;;;;;;5028614;28;20057;-83
2023/05/17 07:41:33;;;;;;;2.67;1.25;;;11.30;1.00;;;;;;5029641;28;20084;-82
2023/05/17 07:43:58;;;;;;;0.35;0.28;;;11.40;1.00;;;;;;5028179;28;20084;-82
2023/05/17 07:46:24;;;;;;;0.52;0.20;;;11.40;1.00;;;;;;5029432;28;20053;-82
2023/05/17 07:48:50;;;;;;;2.92;1.08;;;11.40;1.00;;;;;;5028364;28;20046;-82
2023/05/17 07:51:15;;;;;;;0.00;0.00;;;11.60;1.00;;;;;;5029760;28;20474;-83
2023/05/17 07:53:41;;;;;;;1.40;0.82;;;11.90;1.00;;;;;;5028313;28;20041;-83
2023/05/17 07:56:07;;;;;;;5.40;1.48;;;12.00;1.00;;;;;;5028271;28;20132;-82
2023/05/17 07:58:32;;;;;;;0.00;0.00;;;12.40;1.00;;;;;;5029945;28;20049;-82
2023/05/17 08:00:58;;;;;;;1.17;0.93;;;12.20;1.00;;;;;;5034829;28;20034;-82
2023/05/17 08:03:24;;;;;;;0.52;0.30;;;12.20;1.00;;;;;;5033907;28;20048;-82
2023/05/17 08:05:50;;;;;;;0.17;0.13;;;12.20;1.00;;;;;;5040386;28;20041;-82
2023/05/17 08:08:15;;;;;;;0.80;0.32;;;13.00;1.00;;;;;;5048466;28;20050;-82
2023/05/17 08:10:42;;;;;;;0.22;0.22;;;12.20;1.00;;;;;;5048873;28;20045;-82
2023/05/17 08:13:08;;;;;;;0.60;0.22;;;12.60;1.00;;;;;;5048768;28;20495;-82
2023/05/17 08:15:33;;;;;;;0.10;0.10;;;12.20;1.00;;;;;;5049296;28;20047;-82
2023/05/17 08:17:59;;;;;;;0.25;0.15;;;12.20;1.00;;;;;;5043988;28;20068;-82
2023/05/17 08:20:24;;;;;;;0.00;0.00;;;12.50;1.00;;;;;;5043101;28;20060;-83
2023/05/17 08:22:50;;;;;;;1.55;0.55;;;12.90;1.00;;;;;;5053170;28;20452;-84
2023/05/17 08:25:16;;;;;;;0.20;0.20;;;13.10;1.00;;;;;;5042707;28;20049;-83
2023/05/17 08:27:41;;;;;;;0.30;0.30;;;12.80;1.00;;;;;;5051036;28;20491;-82
2023/05/17 08:30:07;;;;;;;0.05;0.05;;;13.40;1.00;;;;;;5047365;28;20043;-82
2023/05/17 08:32:33;;;;;;;1.08;0.65;;;12.70;1.00;;;;;;5042191;28;20049;-82
2023/05/17 08:34:59;;;;;;;11.35;0.90;;;12.50;1.00;;;;;;5038671;28;20071;-82
2023/05/17 08:37:24;;;;;;;0.00;0.00;;;12.60;1.00;;;;;;5043254;28;20037;-83
2023/05/17 08:39:50;;;;;;;14.25;1.95;;;12.60;1.00;;;;;;5050774;28;20049;-83
2023/05/17 08:42:21;;;;;;;0.08;0.00;;;12.50;1.00;;;;;;5052816;28;20049;-82
2023/05/17 08:44:48;;;;;;;0.28;0.20;;;13.60;1.00;;;;;;5053962;28;20080;-82
2023/05/17 08:47:24;;;;;;;0.00;0.00;;;13.20;1.00;;;;;;5053095;28;20101;-83
2023/05/17 08:49:51;;;;;;;1.88;1.17;;;14.00;1.00;;;;;;5051107;28;20406;-83
2023/05/17 08:52:17;;;;;;;0.57;0.30;;;13.80;1.00;;;;;;5052016;28;20143;-82
2023/05/17 08:54:42;;;;;;;0.10;0.10;;;13.90;1.00;;;;;;5052041;28;20049;-82
2023/05/17 08:57:09;;;;;;;0.00;0.00;;;14.10;1.00;;;;;;5051535;28;20089;-83
2023/05/17 08:59:36;;;;;;;0.17;0.17;;;13.80;1.00;;;;;;5051152;28;20130;-83
2023/05/17 09:02:04;;;;;;;1.45;1.15;;;13.80;1.00;;;;;;5044849;28;20041;-82
2023/05/17 09:04:30;;;;;;;0.63;0.63;;;14.90;1.00;;;;;;5029531;28;20053;-84
2023/05/17 09:06:55;;;;;;;0.17;0.15;;;14.20;1.00;;;;;;5029879;28;20789;-82
2023/05/17 09:09:22;;;;;;;3.05;1.60;;;15.40;1.00;;;;;;5030697;28;20053;-83
2023/05/17 09:11:48;;;;;;;0.57;0.57;;;16.60;1.00;;;;;;5029974;28;20048;-82
2023/05/17 09:14:17;;;;;;;0.00;0.00;;;16.30;1.00;;;;;;5029883;28;20037;-83
2023/05/17 09:16:43;;;;;;;0.00;0.00;;;15.40;1.00;;;;;;5030449;28;20037;-83
2023/05/17 09:19:14;;;;;;;0.40;0.40;;;15.10;1.00;;;;;;5029104;28;20049;-82
2023/05/17 09:21:45;;;;;;;0.30;0.30;;;15.30;1.00;;;;;;5028560;28;20045;-82
2023/05/17 09:24:11;;;;;;;3.35;1.23;;;16.30;1.00;;;;;;5031247;28;20053;-82
2023/05/17 09:26:41;;;;;;;3.03;0.55;;;15.60;1.00;;;;;;5029860;28;20123;-82
2023/05/17 09:29:12;;;;;;;0.50;0.20;;;15.70;1.00;;;;;;5029450;28;20517;-83
2023/05/17 09:31:38;;;;;;;3.10;0.90;;;15.60;1.00;;;;;;5028896;28;20091;-83
2023/05/17 09:34:06;;;;;;;0.35;0.28;;;16.20;1.00;;;;;;5029895;28;20072;-83
2023/05/17 09:36:37;;;;;;;0.70;0.57;;;16.40;1.00;;;;;;5030093;28;20502;-83
2023/05/17 09:39:09;;;;;;;0.20;0.20;;;16.20;1.00;;;;;;5036319;28;20557;-82
2023/05/17 09:41:43;;;;;;;14.43;0.85;;;16.60;1.00;;;;;;5029288;28;20053;-82
2023/05/17 09:44:10;;;;;;;0.80;0.65;;;16.20;1.00;;;;;;5028596;28;20076;-82
2023/05/17 09:46:43;;;;;;;0.50;0.28;;;16.30;1.00;;;;;;5027794;28;20101;-81
2023/05/17 09:49:09;;;;;;;0.00;0.00;;;15.50;1.00;;;;;;5028883;28;20458;-82
2023/05/17 09:51:42;;;;;;;0.28;0.28;;;15.70;1.00;;;;;;5027465;28;20131;-82
2023/05/17 09:54:09;;;;;;;0.00;0.00;;;15.20;1.00;;;;;;5028446;28;20057;-82
2023/05/17 09:56:35;;;;;;;0.30;0.22;;;14.80;1.00;;;;;;5035003;28;20538;-80
2023/05/17 09:59:15;;;;;;;1.92;1.17;;;14.60;1.00;;;;;;5042128;28;20128;-81
2023/05/17 10:01:46;;;;;;;0.10;0.10;;;14.10;1.00;;;;;;5026724;28;20104;-82
2023/05/17 10:04:13;;;;;;;0.35;0.22;;;14.00;1.00;;;;;;5028707;28;20045;-82
2023/05/17 10:06:40;;;;;;;0.00;0.00;;;14.20;1.00;;;;;;5027606;28;20038;-82
2023/05/17 10:09:09;;;;;;;0.00;0.00;;;14.40;1.00;;;;;;5026730;28;20582;-81
2023/05/17 10:11:37;;;;;;;0.55;0.30;;;14.80;1.00;;;;;;5027271;28;20042;-81
2023/05/17 10:14:10;;;;;;;0.52;0.40;;;16.00;1.00;;;;;;5029032;28;20123;-80
2023/05/17 10:16:39;;;;;;;0.25;0.22;;;15.30;1.00;;;;;;5050633;28;20041;-81
2023/05/17 10:19:05;;;;;;;1.48;0.98;;;15.20;1.00;;;;;;5050814;28;20358;-82
2023/05/17 10:21:31;;;;;;;4.85;0.47;;;15.20;1.00;;;;;;5050829;28;20026;-82
2023/05/17 10:24:01;;;;;;;0.17;0.17;;;15.40;1.00;;;;;;5050172;28;20039;-82
2023/05/17 10:26:28;;;;;;;0.88;0.57;;;15.60;1.00;;;;;;5050036;28;20038;-82
2023/05/17 10:29:00;;;;;;;0.20;0.17;;;15.50;1.00;;;;;;5050084;28;20054;-81
2023/05/17 10:31:28;;;;;;;2.10;0.60;;;15.40;1.00;;;;;;5041272;28;20124;-82
2023/05/17 10:33:54;;;;;;;0.10;0.10;;;15.70;1.00;;;;;;5029020;28;20191;-82
2023/05/17 10:36:22;;;;;;;0.43;0.30;;;16.10;1.00;;;;;;5030934;28;20101;-81
2023/05/17 10:38:48;;;;;;;9.18;1.75;;;15.90;1.00;;;;;;5031824;28;20101;-82
2023/05/17 10:41:16;;;;;;;0.65;0.43;;;16.50;1.00;;;;;;5031168;28;20458;-82
2023/05/17 10:43:43;;;;;;;0.00;0.00;;;16.60;1.00;;;;;;5030321;28;20101;-82
2023/05/17 10:46:15;;;;;;;0.20;0.15;;;16.40;1.00;;;;;;5031848;28;20079;-82
2023/05/17 10:48:43;;;;;;;0.00;0.00;;;16.20;1.00;;;;;;5033008;28;20464;-81
2023/05/17 10:51:10;;;;;;;0.20;0.20;;;16.00;1.00;;;;;;5031528;28;20136;-81
2023/05/17 10:54:07;;;;;;;0.20;0.20;;;15.90;1.00;;;;;;5030770;28;20049;-82
2023/05/17 10:56:33;;;;;;;1.55;0.40;;;15.60;1.00;;;;;;5031421;28;20049;-81
2023/05/17 10:59:26;;;;;;;0.10;0.10;;;16.00;1.00;;;;;;5031020;28;20412;-83
2023/05/17 11:02:05;;;;;;;0.13;0.13;;;16.90;1.00;;;;;;5030237;28;20503;-82
2023/05/17 11:04:38;;;;;;;0.08;0.08;;;18.10;1.00;;;;;;5030082;28;20492;-82
2023/05/17 11:07:16;;;;;;;0.63;0.32;;;16.70;1.00;;;;;;5028706;28;20104;-82
2023/05/17 11:09:42;;;;;;;0.85;0.52;;;16.10;1.00;;;;;;5027621;28;20092;-82
2023/05/17 11:12:12;;;;;;;0.28;0.28;;;16.70;1.00;;;;;;5027490;28;20381;-82
2023/05/17 11:14:44;;;;;;;0.45;0.45;;;17.00;1.00;;;;;;5027211;28;20500;-82
2023/05/17 11:17:46;;;;;;;0.55;0.38;;;16.60;1.00;;;;;;5027482;28;20052;-82
2023/05/17 11:20:15;;;;;;;0.03;0.00;;;16.20;1.00;;;;;;5015061;28;20064;-82
2023/05/17 11:23:03;;;;;;;2.17;0.60;;;16.60;1.00;;;;;;5026737;28;20061;-82
2023/05/17 11:25:34;;;;;;;0.20;0.20;;;16.00;1.00;;;;;;5027453;28;20128;-82
2023/05/17 11:28:22;;;;;;;0.00;0.00;;;16.60;1.00;;;;;;5026364;28;20077;-82
2023/05/17 11:30:52;;;;;;;0.00;0.00;;;16.20;1.00;;;;;;5029944;28;20045;-82
2023/05/17 11:33:20;;;;;;;0.20;0.20;;;16.40;1.00;;;;;;5034728;28;20083;-81
2023/05/17 11:35:46;;;;;;;0.17;0.13;;;16.70;1.00;;;;;;5036039;28;20083;-83
2023/05/17 11:38:20;;;;;;;0.22;0.22;;;17.20;1.00;;;;;;5035669;28;20412;-82
2023/05/17 11:40:48;;;;;;;0.00;0.00;;;17.30;1.00;;;;;;5037126;28;20039;-82
2023/05/17 11:43:16;;;;;;;0.73;0.47;;;17.00;1.00;;;;;;5037445;28;20046;-82
2023/05/17 11:45:44;;;;;;;1.17;0.57;;;17.40;1.00;;;;;;5036124;28;20123;-82
2023/05/17 11:48:14;;;;;;;0.00;0.00;;;17.30;1.00;;;;;;5030979;28;20117;-82
2023/05/17 11:50:41;;;;;;;0.20;0.20;;;17.60;1.00;;;;;;5029574;28;20060;-82
2023/05/17 11:53:08;;;;;;;0.00;0.00;;;17.30;1.00;;;;;;5010530;28;20045;-81
2023/05/17 11:55:41;;;;;;;1.67;1.05;;;17.30;1.00;;;;;;5030586;28;20049;-81
2023/05/17 11:58:09;;;;;;;0.68;0.32;;;18.30;1.00;;;;;;5031527;28;20045;-82
2023/05/17 12:00:41;;;;;;;0.10;0.10;;;19.00;1.00;;;;;;5032978;28;20179;-82
2023/05/17 12:03:17;;;;;;;0.28;0.17;;;20.60;1.00;;;;;;5033746;28;20124;-82
2023/05/17 12:05:43;;;;;;;0.10;0.10;;;21.50;1.00;;;;;;5031653;28;20049;-81
2023/05/17 12:08:09;;;;;;;0.35;0.30;;;21.20;1.00;;;;;;5031448;28;20053;-82
2023/05/17 12:10:34;;;;;;;0.00;0.00;;;20.70;1.00;;;;;;5033639;28;20060;-83
2023/05/17 12:13:00;;;;;;;0.32;0.30;;;19.60;1.00;;;;;;5031372;28;20042;-83
2023/05/17 12:15:29;;;;;;;1.33;0.75;;;19.90;1.00;;;;;;5030632;28;20037;-83
2023/05/17 12:17:55;;;;;;;0.52;0.52;;;19.50;1.00;;;;;;5029139;28;20096;-83
2023/05/17 12:20:20;;;;;;;15.00;0.73;;;18.40;1.00;;;;;;5029377;28;20049;-82
2023/05/17 12:22:53;;;;;;;0.00;0.00;;;18.20;1.00;;;;;;5028207;28;20120;-82
2023/05/17 12:25:22;;;;;;;11.40;1.00;;;18.20;1.00;;;;;;5028846;28;20526;-83
2023/05/17 12:27:49;;;;;;;2.72;1.17;;;18.80;1.00;;;;;;5028626;28;20103;-82
2023/05/17 12:30:15;;;;;;;0.03;0.03;;;17.90;1.00;;;;;;5027932;28;20080;-82
2023/05/17 12:32:41;;;;;;;0.00;0.00;;;16.30;1.00;;;;;;5028201;28;20602;-82
2023/05/17 12:35:08;;;;;;;0.93;0.73;;;17.80;1.00;;;;;;5028392;28;20092;-83
2023/05/17 12:37:33;;;;;;;1.27;0.50;;;19.50;1.00;;;;;;5029653;28;20041;-82
2023/05/17 12:40:02;;;;;;;0.25;0.20;;;21.10;1.00;;;;;;5029433;28;20045;-81
2023/05/17 12:42:28;;;;;;;0.28;0.20;;;22.20;1.00;;;;;;5033261;28;20151;-82
2023/05/17 12:44:54;;;;;;;0.17;0.17;;;23.30;1.00;;;;;;5039647;28;20053;-83
2023/05/17 12:47:20;;;;;;;3.70;1.08;;;23.00;1.00;;;;;;5037820;28;20041;-83
2023/05/17 12:49:54;;;;;;;0.00;0.00;;;23.00;1.00;;;;;;5033109;28;20831;-81
2023/05/17 12:52:20;;;;;;;0.43;0.43;;;21.30;1.00;;;;;;5029033;28;20189;-83
2023/05/17 12:54:46;;;;;;;1.23;0.50;;;20.20;1.00;;;;;;5027783;28;20363;-81
2023/05/17 12:57:15;;;;;;;0.38;0.35;;;19.40;1.00;;;;;;5028095;28;20521;-82
2023/05/17 12:59:52;;;;;;;0.13;0.13;;;18.10;1.00;;;;;;5027799;28;20176;-82